aviador You're here:

RJOO Decoded Metar

OSAKA in JAPAN
Report Time2016-05-02 10:00:00
UTC Time2016-05-02 10:40:05
Flight Rules vfr VFR
Wind250° at 05 kt
W.Decomp.*RWY 32: 2.3 kt HW 4.5 kt LCW
W.Rank250° ranks 15
Current wind is below 250° avg. (6.8)
Visibility9999 m
Phenomena:N/A
Clouds:N/A
Expected CloudBase > 4,400 ft AGL from Temp-Dew spread
CeilingNone
Temp23°C (ISA +8)
Dew Point12°C (50% RH)
AAT21.8°C
QNH1017 hPa
Density Alt1,047 ft
Elevation49 ft
Report Wrong Elevation
Raw Report
METAR RJOO 021000Z 25005KT 190V360 CAVOK 23/12 Q1017 RMK A3004=

Extra information for RJOO:More info

Metar Taf Metar & Taf Last 4 Metars F.Rules Stats Wind Profile Meteogram Temp Stats Airport Information Weather charts Add Link Nearby VenuesMetar ALERT Operation Metar Decoded Social comments